Time;durP1;ratioP1;P1;durP2;ratioP2;P2;SDS_P1;SDS_P2;PMS_P1;PMS_P2;Temp;Humidity;BMP_temperature;BMP_pressure;BME280_temperature;BME280_humidity;BME280_pressure;Samples;Min_cycle;Max_cycle;Signal;HPM_P1;HPM_P2
2021/04/19 00:02:06;;;;;;;10.87;3.67;;;9.10;65.90;;;;;;5038934;28;20056;-72
2021/04/19 00:04:32;;;;;;;9.27;3.63;;;9.10;66.10;;;;;;5055378;28;20041;-73
2021/04/19 00:06:58;;;;;;;10.20;3.57;;;9.00;67.20;;;;;;5038815;28;20028;-72
2021/04/19 00:09:23;;;;;;;9.87;5.07;;;9.00;66.80;;;;;;5055175;28;20021;-72
2021/04/19 00:11:49;;;;;;;7.50;3.93;;;8.90;66.80;;;;;;5039141;28;20036;-78
2021/04/19 00:14:15;;;;;;;10.13;3.93;;;8.90;66.60;;;;;;5071237;28;20059;-79
2021/04/19 00:16:40;;;;;;;9.97;4.20;;;8.90;66.70;;;;;;5043502;28;20497;-79
2021/04/19 00:19:06;;;;;;;10.77;5.43;;;8.90;67.50;;;;;;5053349;28;20036;-78
2021/04/19 00:21:32;;;;;;;11.23;4.57;;;8.90;68.10;;;;;;5052720;28;20464;-78
2021/04/19 00:23:57;;;;;;;9.47;4.30;;;8.90;67.80;;;;;;5018797;28;20029;-78
2021/04/19 00:26:23;;;;;;;8.47;4.17;;;8.80;68.10;;;;;;5052752;28;20036;-78
2021/04/19 00:28:49;;;;;;;11.43;4.53;;;8.70;68.10;;;;;;5035484;28;20036;-79
2021/04/19 00:31:15;;;;;;;12.37;4.93;;;8.70;68.40;;;;;;5039377;28;20056;-78
2021/04/19 00:33:41;;;;;;;8.70;4.80;;;8.70;68.90;;;;;;5042362;28;20052;-78
2021/04/19 00:36:07;;;;;;;9.13;4.50;;;8.70;68.90;;;;;;5076909;28;20082;-78
2021/04/19 00:38:33;;;;;;;11.77;5.37;;;8.60;69.30;;;;;;5076721;28;20067;-78
2021/04/19 00:41:01;;;;;;;12.53;5.13;;;8.60;69.20;;;;;;5042456;28;20037;-78
2021/04/19 00:43:27;;;;;;;10.43;5.13;;;8.60;69.60;;;;;;5076496;28;20064;-78
2021/04/19 00:46:02;;;;;;;8.70;4.23;;;8.60;69.60;;;;;;5076249;28;20379;-78
2021/04/19 00:48:28;;;;;;;11.10;5.37;;;8.50;69.50;;;;;;5058082;28;20029;-78
2021/04/19 00:50:55;;;;;;;9.47;4.53;;;8.50;69.30;;;;;;5076304;28;20075;-78
2021/04/19 00:53:27;;;;;;;10.97;4.60;;;8.50;69.60;;;;;;5058300;28;20080;-78
2021/04/19 00:55:54;;;;;;;12.73;5.07;;;8.50;69.80;;;;;;5076148;28;20054;-77
2021/04/19 00:58:24;;;;;;;11.87;4.87;;;8.50;69.70;;;;;;5058543;28;20078;-77
2021/04/19 01:00:50;;;;;;;13.33;4.77;;;8.40;70.70;;;;;;5058199;28;20476;-77
2021/04/19 01:03:16;;;;;;;12.70;5.57;;;8.40;70.50;;;;;;5075784;28;20036;-79
2021/04/19 01:05:42;;;;;;;12.17;5.50;;;8.40;70.80;;;;;;5075846;28;20111;-80
2021/04/19 01:08:09;;;;;;;11.77;5.23;;;8.40;71.30;;;;;;5076075;28;20028;-79
2021/04/19 01:10:36;;;;;;;10.77;5.57;;;8.30;70.60;;;;;;5057829;28;20491;-74
2021/04/19 01:13:04;;;;;;;12.47;6.17;;;8.20;70.50;;;;;;5075977;28;20113;-72
2021/04/19 01:15:30;;;;;;;10.73;5.43;;;8.30;71.10;;;;;;5075824;28;20029;-72
2021/04/19 01:17:55;;;;;;;13.37;5.10;;;8.20;71.10;;;;;;5058298;28;20075;-72
2021/04/19 01:20:24;;;;;;;10.67;5.00;;;8.20;71.10;;;;;;5075476;28;20601;-78
2021/04/19 01:22:50;;;;;;;11.23;5.27;;;8.10;71.10;;;;;;5075816;28;20028;-78
2021/04/19 01:25:20;;;;;;;17.83;6.00;;;8.10;71.50;;;;;;5075643;28;20024;-78
2021/04/19 01:27:46;;;;;;;13.67;6.13;;;8.00;72.00;;;;;;5075807;28;20092;-72
2021/04/19 01:30:15;;;;;;;9.73;5.07;;;8.00;72.10;;;;;;5057312;28;20113;-72
2021/04/19 01:32:40;;;;;;;12.57;6.10;;;7.90;72.80;;;;;;5057530;28;20392;-77
2021/04/19 01:35:07;;;;;;;10.90;5.63;;;7.80;72.70;;;;;;5075444;28;20029;-77
2021/04/19 01:37:32;;;;;;;13.67;6.33;;;7.80;73.30;;;;;;5057555;28;20098;-78
2021/04/19 01:39:58;;;;;;;12.67;6.00;;;7.70;73.60;;;;;;5019008;28;20366;-77
2021/04/19 01:42:23;;;;;;;10.43;5.73;;;7.70;74.00;;;;;;5055246;28;20078;-77
2021/04/19 01:44:49;;;;;;;16.17;7.30;;;7.60;73.90;;;;;;5037261;28;20116;-78
2021/04/19 01:47:15;;;;;;;12.37;6.60;;;7.60;74.20;;;;;;5055428;28;20108;-77
2021/04/19 01:49:41;;;;;;;11.93;5.77;;;7.50;74.60;;;;;;5040646;28;20078;-77
2021/04/19 01:52:07;;;;;;;12.47;6.33;;;7.50;75.00;;;;;;5057441;28;20056;-77
2021/04/19 01:54:32;;;;;;;15.50;6.53;;;7.50;74.80;;;;;;5057524;28;20048;-77
2021/04/19 01:56:58;;;;;;;12.20;6.53;;;7.30;75.70;;;;;;5075041;28;20025;-77
2021/04/19 01:59:24;;;;;;;13.43;6.90;;;7.30;76.00;;;;;;5057246;28;20472;-77
2021/04/19 02:02:18;;;;;;;16.37;7.27;;;7.30;76.30;;;;;;5074975;28;20059;-77
2021/04/19 02:05:24;;;;;;;18.10;7.27;;;7.20;76.60;;;;;;5056605;28;20037;-79
2021/04/19 02:07:52;;;;;;;12.90;6.33;;;7.20;76.50;;;;;;5057032;28;20016;-78
2021/04/19 02:10:40;;;;;;;14.77;7.27;;;7.10;76.50;;;;;;5074937;28;20024;-78
2021/04/19 02:13:10;;;;;;;16.17;6.20;;;7.20;77.90;;;;;;5056613;28;20028;-79
2021/04/19 02:16:04;;;;;;;15.87;7.03;;;7.10;77.00;;;;;;5074795;28;20032;-78
2021/04/19 02:18:54;;;;;;;13.70;6.85;;;7.20;77.00;;;;;;5074528;28;20480;-78
2021/04/19 02:21:26;;;;;;;16.73;6.50;;;7.20;77.10;;;;;;5074058;28;20158;-78
2021/04/19 02:24:00;;;;;;;12.43;6.37;;;7.10;77.90;;;;;;5074387;28;20043;-72
2021/04/19 02:26:29;;;;;;;14.77;6.60;;;7.10;77.60;;;;;;5074185;28;20021;-73
2021/04/19 02:29:09;;;;;;;13.83;6.50;;;7.10;78.10;;;;;;5056780;28;20074;-72
2021/04/19 02:31:39;;;;;;;14.60;6.73;;;7.10;78.10;;;;;;5074696;28;20066;-73
2021/04/19 02:34:08;;;;;;;13.70;7.50;;;7.10;78.00;;;;;;5056545;28;20405;-72
2021/04/19 02:36:36;;;;;;;14.57;7.07;;;7.10;77.80;;;;;;5056128;28;20164;-72
2021/04/19 02:39:04;;;;;;;15.70;7.70;;;7.00;78.50;;;;;;5073976;28;20040;-72
2021/04/19 02:41:31;;;;;;;12.50;7.17;;;7.00;78.70;;;;;;5074407;28;20029;-72
2021/04/19 02:43:59;;;;;;;17.33;7.80;;;7.00;78.80;;;;;;5074172;28;20042;-73
2021/04/19 02:46:29;;;;;;;15.20;7.30;;;7.00;78.80;;;;;;5073969;28;20142;-72
2021/04/19 02:48:56;;;;;;;14.20;7.17;;;6.90;78.90;;;;;;5074079;28;20033;-72
2021/04/19 02:51:22;;;;;;;16.80;8.17;;;6.90;79.20;;;;;;5073322;28;20476;-73
2021/04/19 02:53:50;;;;;;;14.97;7.83;;;6.90;79.50;;;;;;5025728;28;20083;-72
2021/04/19 02:56:16;;;;;;;18.13;8.77;;;6.90;79.90;;;;;;5052384;28;20094;-72
2021/04/19 02:58:48;;;;;;;18.60;8.93;;;6.80;80.40;;;;;;5052921;28;20029;-72
2021/04/19 03:01:25;;;;;;;16.27;8.40;;;6.80;80.20;;;;;;5035909;28;20032;-72
2021/04/19 03:03:54;;;;;;;17.87;8.80;;;6.70;80.10;;;;;;5036129;28;20053;-72
2021/04/19 03:06:22;;;;;;;18.73;9.33;;;6.70;81.30;;;;;;5035912;28;20047;-72
2021/04/19 03:08:51;;;;;;;20.17;8.77;;;6.80;80.70;;;;;;5055819;28;20028;-72
2021/04/19 03:11:22;;;;;;;19.40;9.20;;;6.70;81.00;;;;;;5055967;28;20035;-72
2021/04/19 03:13:50;;;;;;;19.73;9.87;;;6.70;81.00;;;;;;5053920;28;20134;-72
2021/04/19 03:16:19;;;;;;;15.97;8.97;;;6.70;81.50;;;;;;5053622;28;20079;-72
2021/04/19 03:18:46;;;;;;;18.70;9.30;;;6.60;82.30;;;;;;5036336;28;20112;-72
2021/04/19 03:21:19;;;;;;;19.13;8.37;;;6.70;82.00;;;;;;5035864;28;20111;-72
2021/04/19 03:23:47;;;;;;;20.27;9.43;;;6.70;81.40;;;;;;5041555;28;20016;-72
2021/04/19 03:26:15;;;;;;;17.47;8.13;;;6.70;81.70;;;;;;5055614;28;20498;-73
2021/04/19 03:28:46;;;;;;;16.90;8.90;;;6.70;81.40;;;;;;5055630;28;20422;-72
2021/04/19 03:31:22;;;;;;;17.10;8.47;;;6.80;81.40;;;;;;5055658;28;20025;-72
2021/04/19 03:33:49;;;;;;;15.87;8.37;;;6.70;81.30;;;;;;5073631;28;20082;-73
2021/04/19 03:36:17;;;;;;;21.17;9.73;;;6.70;81.30;;;;;;5055452;28;20024;-72
2021/04/19 03:38:44;;;;;;;18.07;9.27;;;6.60;82.00;;;;;;5055390;28;20059;-72
2021/04/19 03:41:11;;;;;;;18.07;8.40;;;6.60;81.60;;;;;;5055344;28;20376;-72
2021/04/19 03:43:38;;;;;;;17.97;9.77;;;6.60;81.70;;;;;;5055368;28;20448;-72
2021/04/19 03:46:06;;;;;;;18.33;8.83;;;6.60;81.90;;;;;;5055194;28;20036;-72
2021/04/19 03:48:37;;;;;;;17.53;9.37;;;6.60;81.80;;;;;;5072846;28;20019;-72
2021/04/19 03:51:06;;;;;;;19.17;8.77;;;6.60;82.00;;;;;;5073131;28;20032;-73
2021/04/19 03:53:33;;;;;;;17.60;8.40;;;6.50;81.80;;;;;;5072648;28;20066;-72
2021/04/19 03:56:00;;;;;;;17.70;10.07;;;6.60;82.10;;;;;;5072280;28;20586;-72
2021/04/19 03:58:28;;;;;;;17.70;8.47;;;6.50;81.70;;;;;;5073300;28;20035;-73
2021/04/19 04:00:55;;;;;;;19.33;9.00;;;6.50;81.90;;;;;;5053994;28;20058;-72
2021/04/19 04:03:21;;;;;;;18.13;9.80;;;6.50;82.00;;;;;;5056134;28;20048;-72
2021/04/19 04:05:49;;;;;;;17.93;9.73;;;6.50;82.20;;;;;;5058593;28;20401;-72
2021/04/19 04:08:16;;;;;;;19.67;9.60;;;6.40;82.60;;;;;;5058513;28;20021;-72
2021/04/19 04:10:43;;;;;;;17.90;9.50;;;6.50;82.40;;;;;;5042621;28;20410;-73
2021/04/19 04:13:09;;;;;;;20.33;9.03;;;6.40;82.50;;;;;;5077172;28;20363;-72
2021/04/19 04:15:35;;;;;;;17.70;9.00;;;6.40;82.50;;;;;;5040702;28;20033;-72
2021/04/19 04:18:01;;;;;;;19.57;9.33;;;6.40;82.50;;;;;;5036582;28;20029;-72
2021/04/19 04:20:26;;;;;;;19.57;10.30;;;6.40;82.70;;;;;;5058010;28;20031;-72
2021/04/19 04:22:52;;;;;;;17.67;10.10;;;6.40;82.80;;;;;;5075709;28;20391;-72
2021/04/19 04:25:18;;;;;;;17.47;10.00;;;6.30;82.80;;;;;;5058380;28;20036;-72
2021/04/19 04:27:44;;;;;;;20.43;10.20;;;6.30;82.90;;;;;;5042662;28;20422;-72
2021/04/19 04:30:10;;;;;;;20.07;9.83;;;6.30;83.10;;;;;;5041575;28;20055;-72
2021/04/19 04:32:35;;;;;;;19.27;10.27;;;6.30;83.20;;;;;;5025014;28;20024;-72
2021/04/19 04:35:02;;;;;;;17.47;10.03;;;6.40;83.50;;;;;;5042249;28;20024;-72
2021/04/19 04:37:27;;;;;;;18.87;9.73;;;6.30;84.10;;;;;;5076889;28;20427;-72
2021/04/19 04:39:53;;;;;;;19.33;10.27;;;6.40;83.70;;;;;;5042159;28;20032;-73
2021/04/19 04:42:20;;;;;;;18.07;10.40;;;6.40;83.70;;;;;;5042185;28;20081;-72
2021/04/19 04:44:48;;;;;;;18.70;10.50;;;6.40;83.90;;;;;;5076647;28;20050;-73
2021/04/19 04:47:30;;;;;;;20.13;10.37;;;6.40;84.10;;;;;;5058610;28;20025;-72
2021/04/19 04:50:10;;;;;;;19.07;10.73;;;6.50;84.40;;;;;;5076606;28;20017;-72
2021/04/19 04:52:43;;;;;;;20.07;11.73;;;6.50;84.40;;;;;;5076578;28;20020;-72
2021/04/19 04:55:13;;;;;;;21.83;11.97;;;6.50;84.80;;;;;;5058352;28;20047;-73
2021/04/19 04:57:43;;;;;;;21.17;11.53;;;6.50;84.70;;;;;;5076224;28;20103;-72
2021/04/19 05:00:10;;;;;;;20.47;10.97;;;6.50;85.00;;;;;;5058701;28;20033;-73
2021/04/19 05:02:37;;;;;;;20.97;10.73;;;6.50;84.90;;;;;;5025467;28;20031;-72
2021/04/19 05:05:03;;;;;;;20.17;11.63;;;6.60;85.00;;;;;;5041858;28;20085;-73
2021/04/19 05:07:29;;;;;;;21.33;11.23;;;6.60;85.10;;;;;;5058958;28;20027;-72
2021/04/19 05:09:55;;;;;;;20.33;12.20;;;6.70;84.90;;;;;;5041515;28;20489;-72
2021/04/19 05:12:21;;;;;;;17.97;11.13;;;6.70;85.10;;;;;;5058532;28;20047;-73
2021/04/19 05:15:00;;;;;;;22.00;11.27;;;6.70;85.20;;;;;;5037048;28;20071;-72
2021/04/19 05:17:26;;;;;;;24.00;11.73;;;6.70;85.20;;;;;;5057931;28;20025;-72
2021/04/19 05:19:52;;;;;;;21.50;12.23;;;6.80;85.40;;;;;;5058316;28;20035;-73
2021/04/19 05:22:19;;;;;;;19.20;11.27;;;6.80;85.20;;;;;;5074678;28;20419;-78
2021/04/19 05:24:44;;;;;;;23.77;11.93;;;6.80;85.30;;;;;;5063491;28;20116;-78
2021/04/19 05:27:12;;;;;;;23.90;12.60;;;6.80;85.20;;;;;;5051346;28;20441;-79
2021/04/19 05:29:39;;;;;;;20.17;10.90;;;6.80;85.30;;;;;;5044040;28;20035;-78
2021/04/19 05:32:08;;;;;;;21.03;12.93;;;6.80;85.60;;;;;;5049084;28;20032;-78
2021/04/19 05:34:36;;;;;;;22.37;12.30;;;6.90;85.90;;;;;;5072576;28;20021;-78
2021/04/19 05:37:03;;;;;;;20.57;13.27;;;7.00;86.20;;;;;;5056445;28;20031;-78
2021/04/19 05:39:31;;;;;;;23.67;13.17;;;7.00;86.50;;;;;;5075216;28;20107;-78
2021/04/19 05:41:57;;;;;;;25.73;12.27;;;7.10;86.40;;;;;;5075083;28;20089;-78
2021/04/19 05:44:25;;;;;;;25.10;13.67;;;7.10;87.50;;;;;;5037619;28;20492;-79
2021/04/19 05:46:51;;;;;;;21.57;13.47;;;7.20;86.50;;;;;;5061298;28;20066;-79
2021/04/19 05:49:17;;;;;;;23.70;13.70;;;7.20;86.40;;;;;;5061550;28;20025;-79
2021/04/19 05:51:44;;;;;;;27.77;15.20;;;7.10;87.00;;;;;;5070216;28;20089;-78
2021/04/19 05:54:12;;;;;;;20.27;12.97;;;7.30;86.90;;;;;;5057472;28;20025;-78
2021/04/19 05:56:47;;;;;;;21.43;12.57;;;7.30;86.40;;;;;;5074975;28;20041;-78
2021/04/19 05:59:19;;;;;;;22.27;13.80;;;7.30;86.40;;;;;;5075090;28;20528;-78
2021/04/19 06:01:47;;;;;;;20.97;13.27;;;7.30;86.40;;;;;;5074954;28;20097;-77
2021/04/19 06:04:31;;;;;;;22.70;13.13;;;7.40;86.90;;;;;;5044538;28;20017;-78
2021/04/19 06:07:08;;;;;;;23.70;14.25;;;7.40;87.80;;;;;;5048477;28;20041;-78
2021/04/19 06:09:40;;;;;;;23.57;14.37;;;7.30;87.60;;;;;;5053801;28;20020;-78
2021/04/19 06:12:09;;;;;;;23.03;13.97;;;7.40;87.20;;;;;;5057475;28;20501;-77
2021/04/19 06:14:44;;;;;;;25.97;15.30;;;7.40;87.20;;;;;;5063075;28;20078;-77
2021/04/19 06:17:11;;;;;;;23.83;13.90;;;7.40;88.00;;;;;;5049814;28;20028;-78
2021/04/19 06:19:41;;;;;;;21.20;12.47;;;7.40;87.70;;;;;;5056471;28;20025;-79
2021/04/19 06:22:06;;;;;;;26.20;15.07;;;7.40;87.70;;;;;;5074518;28;20032;-79
2021/04/19 06:24:32;;;;;;;20.87;13.60;;;7.40;87.70;;;;;;5038985;28;20029;-78
2021/04/19 06:26:59;;;;;;;24.80;14.83;;;7.50;87.90;;;;;;5036704;28;20028;-79
2021/04/19 06:29:29;;;;;;;22.73;14.27;;;7.50;88.50;;;;;;5054439;28;20021;-79
2021/04/19 06:31:57;;;;;;;26.40;14.57;;;7.60;88.90;;;;;;5047039;28;20021;-79
2021/04/19 06:34:23;;;;;;;22.63;14.47;;;7.70;89.40;;;;;;5074303;28;20016;-79
2021/04/19 06:36:50;;;;;;;21.77;14.63;;;7.70;88.50;;;;;;5036346;28;20036;-79
2021/04/19 06:39:20;;;;;;;23.23;14.83;;;7.80;88.60;;;;;;5042568;28;20028;-78
2021/04/19 06:41:47;;;;;;;23.97;14.40;;;7.90;88.30;;;;;;5055556;28;20089;-79
2021/04/19 06:44:14;;;;;;;23.70;15.57;;;7.90;88.50;;;;;;5056106;28;20032;-78
2021/04/19 06:46:41;;;;;;;25.23;15.13;;;7.80;88.90;;;;;;5074072;28;20388;-78
2021/04/19 06:49:09;;;;;;;24.87;15.43;;;7.90;89.40;;;;;;5073920;28;20400;-78
2021/04/19 06:51:35;;;;;;;25.53;15.10;;;7.90;89.20;;;;;;5053065;28;20040;-79
2021/04/19 06:54:02;;;;;;;24.53;15.07;;;7.80;89.80;;;;;;5073976;28;20090;-79
2021/04/19 06:56:40;;;;;;;26.00;16.43;;;7.90;89.90;;;;;;5073640;28;20123;-79
2021/04/19 06:59:20;;;;;;;24.03;14.80;;;7.80;89.60;;;;;;5073777;28;20025;-78
2021/04/19 07:01:50;;;;;;;26.97;15.80;;;7.80;89.10;;;;;;5073438;28;20027;-78
2021/04/19 07:04:19;;;;;;;24.80;15.93;;;7.80;88.80;;;;;;5078988;28;20352;-79
2021/04/19 07:06:46;;;;;;;25.80;15.50;;;7.80;88.90;;;;;;5055472;28;20109;-79
2021/04/19 07:09:28;;;;;;;26.37;14.67;;;7.90;89.00;;;;;;5073747;28;20059;-78
2021/04/19 07:12:17;;;;;;;26.20;14.83;;;7.90;89.60;;;;;;5073587;28;20468;-79
2021/04/19 07:14:44;;;;;;;25.10;14.80;;;7.90;89.30;;;;;;5055614;28;20043;-79
2021/04/19 07:17:10;;;;;;;24.73;14.93;;;8.00;89.10;;;;;;5080043;28;20028;-79
2021/04/19 07:19:38;;;;;;;22.00;13.83;;;8.10;89.20;;;;;;5057872;28;20029;-78
2021/04/19 07:22:05;;;;;;;24.40;15.00;;;8.20;89.20;;;;;;5039344;28;20031;-79
2021/04/19 07:24:31;;;;;;;23.03;14.03;;;8.40;89.40;;;;;;5056080;28;20094;-79
2021/04/19 07:26:58;;;;;;;22.90;14.73;;;8.50;89.60;;;;;;5060811;28;20039;-79
2021/04/19 07:29:24;;;;;;;23.53;13.63;;;8.70;89.70;;;;;;5055093;28;20388;-79
2021/04/19 07:31:54;;;;;;;21.23;13.37;;;8.80;89.70;;;;;;5055483;28;20093;-79
2021/04/19 07:34:25;;;;;;;22.20;13.73;;;8.90;89.60;;;;;;5084781;28;20096;-79
2021/04/19 07:36:57;;;;;;;21.40;14.10;;;9.10;89.60;;;;;;5055505;28;20020;-79
2021/04/19 07:39:24;;;;;;;21.43;15.03;;;9.20;89.80;;;;;;5073295;28;20021;-79
2021/04/19 07:41:54;;;;;;;20.90;13.93;;;9.40;90.00;;;;;;5055287;28;20017;-79
2021/04/19 07:44:43;;;;;;;21.83;14.43;;;9.60;90.10;;;;;;5057929;28;20131;-72
2021/04/19 07:47:30;;;;;;;20.30;13.23;;;9.80;90.10;;;;;;5070453;28;20411;-73
2021/04/19 07:50:01;;;;;;;22.73;14.23;;;10.00;89.90;;;;;;5053630;28;20017;-73
2021/04/19 07:52:29;;;;;;;23.43;14.07;;;10.10;89.50;;;;;;5035645;28;20017;-73
2021/04/19 07:55:13;;;;;;;22.77;14.17;;;10.10;89.20;;;;;;5035232;28;20037;-72
2021/04/19 07:57:40;;;;;;;20.40;13.85;;;10.30;89.20;;;;;;5054681;28;20496;-72
2021/04/19 08:00:08;;;;;;;19.03;13.37;;;10.50;89.30;;;;;;5046174;28;20042;-72
2021/04/19 08:02:34;;;;;;;21.20;13.97;;;10.60;89.20;;;;;;5076727;28;20028;-72
2021/04/19 08:05:04;;;;;;;22.37;13.30;;;10.70;89.10;;;;;;5044065;28;20040;-73
2021/04/19 08:07:30;;;;;;;19.03;13.97;;;10.80;88.90;;;;;;5063841;28;20111;-72
2021/04/19 08:10:01;;;;;;;18.97;13.37;;;11.00;88.80;;;;;;5079188;28;20116;-72
2021/04/19 08:12:40;;;;;;;21.70;14.13;;;11.10;88.50;;;;;;5058332;28;20032;-73
2021/04/19 08:15:12;;;;;;;20.40;12.87;;;11.20;88.20;;;;;;5061873;28;20057;-72
2021/04/19 08:17:37;;;;;;;21.53;14.73;;;11.30;87.90;;;;;;5060694;28;20183;-73
2021/04/19 08:20:15;;;;;;;20.67;14.10;;;11.40;87.70;;;;;;5043150;28;20056;-73
2021/04/19 08:22:44;;;;;;;20.93;14.37;;;11.50;87.50;;;;;;5059715;28;20016;-72
2021/04/19 08:25:18;;;;;;;20.13;14.13;;;11.70;87.40;;;;;;5057833;28;20102;-73
2021/04/19 08:27:59;;;;;;;19.33;13.45;;;11.80;87.20;;;;;;5076742;28;20028;-73
2021/04/19 08:30:25;;;;;;;18.05;13.13;;;11.90;86.90;;;;;;5080501;28;20100;-73
2021/04/19 08:32:51;;;;;;;18.45;12.77;;;12.10;86.90;;;;;;5060573;28;20025;-73
2021/04/19 08:35:18;;;;;;;16.50;11.60;;;12.20;86.70;;;;;;5078041;28;20025;-73
2021/04/19 08:37:44;;;;;;;17.02;12.02;;;12.30;86.20;;;;;;5038174;28;20035;-72
2021/04/19 08:40:15;;;;;;;17.23;11.77;;;12.30;86.40;;;;;;5080952;28;20060;-73
2021/04/19 08:42:41;;;;;;;17.00;11.75;;;12.30;85.40;;;;;;5080360;28;20029;-72
2021/04/19 08:45:07;;;;;;;15.35;11.93;;;12.30;85.10;;;;;;5065124;28;20479;-73
2021/04/19 08:47:34;;;;;;;15.43;11.10;;;12.40;85.00;;;;;;5041336;28;20059;-72
2021/04/19 08:50:03;;;;;;;15.25;12.07;;;12.50;85.00;;;;;;5093390;28;20096;-73
2021/04/19 08:52:29;;;;;;;15.82;11.40;;;12.50;84.30;;;;;;5059516;28;20027;-73
2021/04/19 08:54:55;;;;;;;14.25;10.02;;;12.60;83.90;;;;;;5062506;28;20040;-72
2021/04/19 08:57:21;;;;;;;17.10;11.70;;;12.50;84.00;;;;;;5061284;28;20476;-73
2021/04/19 08:59:50;;;;;;;16.38;10.38;;;12.50;83.10;;;;;;5057920;28;20033;-73
2021/04/19 09:02:17;;;;;;;14.80;9.90;;;12.60;83.00;;;;;;5078339;28;20025;-73
2021/04/19 09:05:10;;;;;;;16.27;10.48;;;12.70;83.00;;;;;;5060739;28;20472;-73
2021/04/19 09:07:42;;;;;;;13.05;8.48;;;12.80;82.70;;;;;;5058100;28;20392;-73
2021/04/19 09:10:11;;;;;;;13.02;8.35;;;12.90;82.50;;;;;;5076411;28;20024;-72
2021/04/19 09:12:37;;;;;;;12.82;8.68;;;12.90;82.30;;;;;;5058294;28;20054;-79
2021/04/19 09:15:19;;;;;;;12.48;8.07;;;13.10;82.00;;;;;;5068531;28;20115;-80
2021/04/19 09:18:01;;;;;;;11.00;8.38;;;13.10;81.70;;;;;;5083145;28;20024;-80
2021/04/19 09:20:55;;;;;;;13.05;8.57;;;13.30;81.30;;;;;;5057827;28;20415;-80
2021/04/19 09:23:31;;;;;;;12.18;7.85;;;13.30;81.20;;;;;;5075250;28;20036;-80
2021/04/19 09:25:59;;;;;;;12.20;7.82;;;13.50;81.40;;;;;;5075665;28;20468;-80
2021/04/19 09:28:39;;;;;;;11.77;7.93;;;13.80;81.30;;;;;;5075865;28;20021;-80
2021/04/19 09:31:05;;;;;;;12.48;7.40;;;13.90;80.70;;;;;;5061642;28;20099;-80
2021/04/19 09:33:31;;;;;;;11.05;7.90;;;14.10;80.10;;;;;;5057713;28;20086;-79
2021/04/19 09:35:57;;;;;;;11.50;8.20;;;14.20;79.50;;;;;;5077718;28;20028;-80
2021/04/19 09:38:37;;;;;;;12.98;8.88;;;14.30;78.70;;;;;;5095801;28;20028;-80
2021/04/19 09:41:05;;;;;;;12.63;8.00;;;14.40;78.40;;;;;;5095778;28;20122;-80
2021/04/19 09:43:37;;;;;;;12.15;8.18;;;14.50;78.20;;;;;;5095766;28;20036;-80
2021/04/19 09:46:06;;;;;;;12.10;8.48;;;14.60;77.90;;;;;;5095441;28;20085;-81
2021/04/19 09:48:31;;;;;;;11.70;7.18;;;14.70;77.70;;;;;;5060400;28;20032;-80
2021/04/19 09:51:00;;;;;;;11.63;8.05;;;14.80;77.20;;;;;;5057367;28;20392;-80
2021/04/19 09:53:27;;;;;;;12.90;8.02;;;15.00;76.50;;;;;;5057403;28;20024;-80
2021/04/19 09:55:53;;;;;;;10.70;8.15;;;15.00;76.00;;;;;;5082833;28;20182;-81
2021/04/19 09:58:20;;;;;;;10.75;7.32;;;15.10;75.70;;;;;;5076180;28;20037;-80
2021/04/19 10:00:53;;;;;;;9.93;6.78;;;15.30;75.40;;;;;;5056486;28;20067;-80
2021/04/19 10:03:19;;;;;;;8.98;5.70;;;15.40;75.10;;;;;;5056540;28;20031;-79
2021/04/19 10:05:45;;;;;;;8.82;5.95;;;15.50;74.60;;;;;;5057265;28;20029;-79
2021/04/19 10:08:13;;;;;;;7.13;4.78;;;15.70;74.00;;;;;;5056904;28;20028;-79
2021/04/19 10:10:41;;;;;;;8.18;5.50;;;15.80;73.30;;;;;;5057016;28;20031;-79
2021/04/19 10:13:07;;;;;;;10.40;5.80;;;16.00;72.20;;;;;;5074877;28;20099;-79
2021/04/19 10:15:32;;;;;;;7.80;5.15;;;16.20;71.60;;;;;;5056826;28;20051;-79
2021/04/19 10:18:08;;;;;;;9.88;5.30;;;16.40;70.30;;;;;;5056754;28;20074;-79
2021/04/19 10:20:36;;;;;;;6.60;4.63;;;16.50;69.90;;;;;;5036835;28;20173;-78
2021/04/19 10:23:13;;;;;;;6.55;4.38;;;16.70;69.60;;;;;;5057943;28;20031;-79
2021/04/19 10:25:53;;;;;;;7.10;4.88;;;17.00;68.90;;;;;;5052679;28;20462;-80
2021/04/19 10:28:39;;;;;;;8.45;6.13;;;17.10;68.20;;;;;;5091302;28;20103;-78
2021/04/19 10:31:19;;;;;;;7.10;5.13;;;17.20;67.40;;;;;;5060060;28;20021;-78
2021/04/19 10:33:55;;;;;;;9.27;6.13;;;17.30;66.50;;;;;;5074352;28;20021;-79
2021/04/19 10:36:26;;;;;;;8.10;5.65;;;17.30;66.00;;;;;;5055924;28;20442;-79
2021/04/19 10:39:09;;;;;;;7.30;5.10;;;17.20;65.40;;;;;;5056784;28;20025;-79
2021/04/19 10:41:36;;;;;;;8.38;5.78;;;17.10;65.30;;;;;;5074028;28;20046;-78
2021/04/19 10:44:03;;;;;;;8.70;5.82;;;17.30;65.10;;;;;;5073545;28;20047;-79
2021/04/19 10:46:33;;;;;;;9.43;5.40;;;17.50;65.10;;;;;;5070235;28;20488;-78
2021/04/19 10:49:00;;;;;;;8.00;5.43;;;17.60;64.20;;;;;;5062385;28;20508;-79
2021/04/19 10:51:32;;;;;;;6.55;4.63;;;17.90;64.30;;;;;;5086025;28;20028;-80
2021/04/19 10:54:02;;;;;;;8.93;5.13;;;18.20;63.60;;;;;;5073728;28;20029;-79
2021/04/19 10:56:29;;;;;;;6.70;4.88;;;18.60;63.00;;;;;;5081687;28;20044;-80
2021/04/19 10:58:56;;;;;;;7.05;4.97;;;19.10;62.80;;;;;;5076604;28;20050;-79
2021/04/19 11:01:30;;;;;;;7.68;4.57;;;19.60;62.10;;;;;;5073523;28;20458;-79
2021/04/19 11:03:58;;;;;;;6.28;4.70;;;20.00;60.90;;;;;;5073932;28;20095;-78
2021/04/19 11:06:24;;;;;;;4.97;4.10;;;20.20;60.10;;;;;;5073678;28;20043;-79
2021/04/19 11:08:56;;;;;;;4.63;3.65;;;20.70;59.50;;;;;;5056436;28;20029;-79
2021/04/19 11:11:42;;;;;;;5.50;3.95;;;21.30;57.90;;;;;;5055444;28;20021;-79
2021/04/19 11:14:09;;;;;;;5.18;3.45;;;21.50;57.40;;;;;;5073053;28;20025;-79
2021/04/19 11:16:35;;;;;;;7.55;3.85;;;21.60;56.20;;;;;;5073448;28;20468;-81
2021/04/19 11:19:01;;;;;;;7.70;5.00;;;21.60;54.50;;;;;;5055537;28;20043;-79
2021/04/19 11:21:35;;;;;;;5.95;4.40;;;21.50;52.50;;;;;;5056054;28;20097;-79
2021/04/19 11:24:12;;;;;;;7.13;4.55;;;21.30;51.60;;;;;;5055707;28;20045;-79
2021/04/19 11:26:42;;;;;;;5.25;3.85;;;21.00;52.10;;;;;;5073276;28;20039;-79
2021/04/19 11:29:08;;;;;;;8.93;4.20;;;20.80;52.20;;;;;;5073488;28;20028;-79
2021/04/19 11:31:51;;;;;;;5.65;3.60;;;20.80;52.50;;;;;;5055939;28;20017;-79
2021/04/19 11:34:17;;;;;;;4.60;3.00;;;21.20;52.50;;;;;;5073273;28;20024;-79
2021/04/19 11:36:45;;;;;;;6.93;3.50;;;21.70;52.10;;;;;;5081609;28;20028;-80
2021/04/19 11:39:21;;;;;;;3.95;2.85;;;21.70;51.10;;;;;;5076027;28;20115;-79
2021/04/19 11:41:48;;;;;;;6.93;3.65;;;21.80;50.40;;;;;;5058021;28;20052;-79
2021/04/19 11:44:14;;;;;;;5.38;3.00;;;22.00;50.00;;;;;;5073431;28;20025;-80
2021/04/19 11:46:48;;;;;;;4.20;2.67;;;22.50;49.10;;;;;;5073798;28;20036;-80
2021/04/19 11:49:17;;;;;;;;;;;22.80;48.60;;;;;;5073598;28;20039;-81
2021/04/19 11:51:44;;;;;;;3.92;2.13;;;23.10;49.00;;;;;;5048975;28;19916;-79
2021/04/19 11:54:11;;;;;;;5.85;3.42;;;23.10;49.10;;;;;;5072871;28;20032;-78
2021/04/19 11:56:38;;;;;;;4.45;2.65;;;23.00;48.40;;;;;;5054816;28;20385;-78
2021/04/19 11:59:06;;;;;;;5.25;3.17;;;22.80;48.00;;;;;;5055329;28;20139;-78
2021/04/19 12:01:32;;;;;;;3.92;2.83;;;22.50;48.00;;;;;;5073048;28;20074;-71
2021/04/19 12:03:58;;;;;;;5.90;2.80;;;22.20;47.90;;;;;;5055132;28;20449;-72
2021/04/19 12:06:25;;;;;;;5.43;2.75;;;21.90;47.90;;;;;;5054995;28;20028;-71
2021/04/19 12:08:52;;;;;;;5.18;3.25;;;21.70;48.00;;;;;;5076988;28;20097;-71
2021/04/19 12:11:21;;;;;;;5.55;3.40;;;21.40;48.30;;;;;;5039399;28;20377;-72
2021/04/19 12:13:51;;;;;;;4.35;3.08;;;21.20;48.80;;;;;;5055473;28;20028;-71
2021/04/19 12:16:19;;;;;;;4.90;3.38;;;20.90;49.20;;;;;;5065198;28;20081;-71
2021/04/19 12:18:45;;;;;;;5.18;3.13;;;20.70;49.50;;;;;;5084668;28;20043;-72
2021/04/19 12:21:11;;;;;;;6.95;3.78;;;20.50;49.60;;;;;;5038677;28;20032;-72
2021/04/19 12:23:36;;;;;;;6.15;3.63;;;20.20;49.70;;;;;;5055265;28;20071;-71
2021/04/19 12:26:03;;;;;;;6.78;4.13;;;20.10;49.90;;;;;;5058912;28;20375;-73
2021/04/19 12:28:29;;;;;;;6.03;4.10;;;19.90;50.20;;;;;;5059196;28;20454;-79
2021/04/19 12:30:56;;;;;;;5.57;3.85;;;19.80;50.90;;;;;;5059116;28;20028;-79
2021/04/19 12:33:22;;;;;;;5.82;4.03;;;19.60;50.50;;;;;;5076748;28;20082;-79
2021/04/19 12:35:48;;;;;;;6.03;3.60;;;19.30;50.80;;;;;;5085575;28;20040;-80
2021/04/19 12:38:14;;;;;;;7.15;3.78;;;19.20;51.10;;;;;;5089460;28;20028;-79
2021/04/19 12:40:41;;;;;;;8.57;4.40;;;19.10;51.60;;;;;;5058411;28;20115;-79
2021/04/19 12:43:06;;;;;;;6.55;3.90;;;19.00;51.90;;;;;;5058304;28;20024;-79
2021/04/19 12:45:33;;;;;;;6.47;4.30;;;18.80;52.00;;;;;;5076056;28;20082;-79
2021/04/19 12:48:00;;;;;;;6.45;4.22;;;18.70;52.20;;;;;;5075810;28;20476;-79
2021/04/19 12:50:26;;;;;;;6.13;3.92;;;18.70;52.50;;;;;;5076237;28;20028;-80
2021/04/19 12:52:52;;;;;;;6.00;4.43;;;18.60;52.60;;;;;;5045749;28;20093;-80
2021/04/19 12:55:17;;;;;;;6.15;4.28;;;18.60;52.80;;;;;;5066138;28;20529;-79